createdAt,value
2018-02-13T00:02:21.246Z,0.20
2018-02-13T00:04:48.852Z,0.16
2018-02-13T00:07:16.427Z,0.17
2018-02-13T00:09:44.009Z,0.10
2018-02-13T00:12:11.621Z,0.05
2018-02-13T00:14:39.209Z,-0.01
2018-02-13T00:17:06.777Z,0.03
2018-02-13T00:19:34.429Z,0.09
2018-02-13T00:22:02.000Z,0.16
2018-02-13T00:24:29.566Z,0.22
2018-02-13T00:26:57.198Z,0.34
2018-02-13T00:29:24.760Z,0.41
2018-02-13T00:31:52.335Z,0.50
2018-02-13T00:34:20.046Z,0.52
2018-02-13T00:36:47.628Z,0.51
2018-02-13T00:39:15.192Z,0.42
2018-02-13T00:41:42.799Z,0.32
2018-02-13T00:44:10.384Z,0.28
2018-02-13T00:46:37.956Z,0.23
2018-02-13T00:49:05.560Z,0.16
2018-02-13T00:51:33.178Z,0.14
2018-02-13T00:54:00.779Z,0.12
2018-02-13T00:56:28.371Z,0.09
2018-02-13T00:58:55.924Z,0.10
2018-02-13T01:01:23.508Z,0.14
2018-02-13T01:03:51.105Z,0.16
2018-02-13T01:06:18.679Z,0.16
2018-02-13T01:08:46.238Z,0.13
2018-02-13T01:11:13.855Z,0.04
2018-02-13T01:13:41.445Z,0.10
2018-02-13T01:16:09.025Z,0.14
2018-02-13T01:18:36.637Z,0.20
2018-02-13T01:21:04.209Z,0.28
2018-02-13T01:23:31.779Z,0.35
2018-02-13T01:25:59.379Z,0.37
2018-02-13T01:28:26.946Z,0.36
2018-02-13T01:30:54.495Z,0.34
2018-02-13T01:33:22.137Z,0.26
2018-02-13T01:35:49.713Z,0.31
2018-02-13T01:38:17.293Z,0.31
2018-02-13T01:40:44.903Z,0.20
2018-02-13T01:43:12.467Z,0.12
2018-02-13T01:45:40.038Z,0.09
2018-02-13T01:48:07.649Z,0.10
2018-02-13T01:50:35.219Z,0.17
2018-02-13T01:53:02.781Z,0.22
2018-02-13T01:55:30.379Z,0.24
2018-02-13T01:57:57.955Z,0.27
2018-02-13T02:00:25.520Z,0.31
2018-02-13T02:02:53.135Z,0.35
2018-02-13T02:05:20.699Z,0.37
2018-02-13T02:07:48.256Z,0.38
2018-02-13T02:10:15.860Z,0.36
2018-02-13T02:12:43.420Z,0.35
2018-02-13T02:15:11.008Z,0.32
2018-02-13T02:17:38.614Z,0.28
2018-02-13T02:20:06.176Z,0.30
2018-02-13T02:22:33.746Z,0.32
2018-02-13T02:25:01.374Z,0.39
2018-02-13T02:27:28.940Z,0.45
2018-02-13T02:29:56.517Z,0.42
2018-02-13T02:32:24.129Z,0.39
2018-02-13T02:34:51.694Z,0.35
2018-02-13T02:37:19.278Z,0.29
2018-02-13T02:39:46.895Z,0.33
2018-02-13T02:42:14.472Z,0.41
2018-02-13T02:44:42.057Z,0.46
2018-02-13T02:47:09.666Z,0.54
2018-02-13T02:49:37.231Z,0.52
2018-02-13T02:52:04.809Z,0.57
2018-02-13T02:54:32.407Z,0.64
2018-02-13T02:56:59.985Z,0.64
2018-02-13T02:59:27.569Z,0.54
2018-02-13T03:01:55.178Z,0.70
2018-02-13T03:04:22.738Z,0.66
2018-02-13T03:06:50.408Z,0.60
2018-02-13T03:09:18.019Z,0.59
2018-02-13T03:11:45.638Z,0.60
2018-02-13T03:14:13.198Z,0.66
2018-02-13T03:16:40.807Z,0.62
2018-02-13T03:19:08.389Z,0.62
2018-02-13T03:21:35.959Z,0.61
2018-02-13T03:24:03.563Z,0.59
2018-02-13T03:26:31.138Z,0.53
2018-02-13T03:28:58.695Z,0.47
2018-02-13T03:31:26.288Z,0.39
2018-02-13T03:33:53.901Z,0.31
2018-02-13T03:36:21.463Z,0.26
2018-02-13T03:38:49.068Z,0.21
2018-02-13T03:41:16.647Z,0.20
2018-02-13T03:43:44.207Z,0.16
2018-02-13T03:46:11.810Z,0.12
2018-02-13T03:48:39.379Z,0.12
2018-02-13T03:51:06.964Z,0.17
2018-02-13T03:53:34.573Z,0.22
2018-02-13T03:56:02.160Z,0.26
2018-02-13T03:58:29.756Z,0.29
2018-02-13T04:00:57.378Z,0.30
2018-02-13T04:03:25.077Z,0.29
2018-02-13T04:05:52.666Z,0.23
2018-02-13T04:08:20.296Z,0.17
2018-02-13T04:10:47.876Z,0.17
2018-02-13T04:13:15.445Z,0.21
2018-02-13T04:15:43.101Z,0.22
2018-02-13T04:18:10.679Z,0.19
2018-02-13T04:20:38.243Z,0.17
2018-02-13T04:23:05.853Z,0.17
2018-02-13T04:25:33.422Z,0.09
2018-02-13T04:28:00.975Z,0.08
2018-02-13T04:30:28.584Z,0.11
2018-02-13T04:32:56.171Z,0.16
2018-02-13T04:35:23.738Z,0.16
2018-02-13T04:37:51.370Z,0.28
2018-02-13T04:40:18.942Z,0.29
2018-02-13T04:42:46.524Z,0.23
2018-02-13T04:45:14.136Z,0.22
2018-02-13T04:47:41.721Z,0.21
2018-02-13T04:50:09.278Z,0.20
2018-02-13T04:52:36.900Z,0.14
2018-02-13T04:55:04.472Z,0.15
2018-02-13T04:57:32.076Z,0.11
2018-02-13T04:59:59.690Z,0.04
2018-02-13T05:02:27.264Z,0.03
2018-02-13T05:04:54.837Z,0.06
2018-02-13T05:07:22.457Z,0.06
2018-02-13T05:09:50.036Z,0.08
2018-02-13T05:12:17.623Z,0.11
2018-02-13T05:14:45.343Z,0.14
2018-02-13T05:17:12.931Z,0.09
2018-02-13T05:19:40.550Z,0.07
2018-02-13T05:22:08.172Z,0.09
2018-02-13T05:24:35.764Z,0.06
2018-02-13T05:27:03.391Z,0.04
2018-02-13T05:29:31.010Z,-0.05
2018-02-13T05:31:58.602Z,-0.08
2018-02-13T05:34:26.197Z,-0.01
2018-02-13T05:36:53.823Z,0.03
2018-02-13T05:39:21.419Z,0.04
2018-02-13T05:41:49.032Z,0.05
2018-02-13T05:44:16.640Z,0.10
2018-02-13T05:46:44.340Z,0.13
2018-02-13T05:49:11.914Z,0.09
2018-02-13T05:51:39.678Z,0.12
2018-02-13T05:54:07.434Z,0.22
2018-02-13T05:56:35.026Z,0.32
2018-02-13T05:59:02.652Z,0.25
2018-02-13T06:01:30.239Z,0.28
2018-02-13T06:03:57.822Z,0.28
2018-02-13T06:06:25.443Z,0.37
2018-02-13T06:08:53.012Z,0.51
2018-02-13T06:11:20.597Z,0.51
2018-02-13T06:13:48.204Z,0.50
2018-02-13T06:16:15.769Z,0.61
2018-02-13T06:18:43.351Z,0.77
2018-02-13T06:21:10.963Z,1.05
2018-02-13T06:23:38.540Z,1.24
2018-02-13T06:26:06.111Z,1.44
2018-02-13T06:28:33.738Z,1.57
2018-02-13T06:31:01.333Z,1.54
2018-02-13T06:33:28.910Z,1.52
2018-02-13T06:35:56.515Z,1.43
2018-02-13T06:38:24.089Z,1.72
2018-02-13T06:40:51.664Z,1.84
2018-02-13T06:43:19.280Z,2.07
2018-02-13T06:45:46.852Z,2.25
2018-02-13T06:48:14.444Z,2.60
2018-02-13T06:50:42.051Z,3.19
2018-02-13T06:53:09.641Z,3.31
2018-02-13T06:55:37.212Z,3.20
2018-02-13T06:58:04.823Z,3.49
2018-02-13T07:00:32.427Z,3.89
2018-02-13T07:03:00.020Z,4.69
2018-02-13T07:05:27.693Z,5.39
2018-02-13T07:07:55.279Z,5.63
2018-02-13T07:10:22.842Z,5.52
2018-02-13T07:12:50.585Z,5.24
2018-02-13T07:15:18.155Z,5.32
2018-02-13T07:17:45.727Z,5.55
2018-02-13T07:20:13.339Z,5.84
2018-02-13T07:22:40.949Z,6.02
2018-02-13T07:25:08.524Z,6.24
2018-02-13T07:27:36.137Z,6.22
2018-02-13T07:30:03.697Z,6.69
2018-02-13T07:32:31.275Z,7.15
2018-02-13T07:34:58.888Z,7.79
2018-02-13T07:37:26.454Z,8.42
2018-02-13T07:39:54.038Z,8.67
2018-02-13T07:42:21.660Z,8.25
2018-02-13T07:44:49.227Z,8.20
2018-02-13T07:47:16.821Z,7.29
2018-02-13T07:49:44.481Z,6.72
2018-02-13T07:52:12.070Z,6.75
2018-02-13T07:54:39.660Z,8.11
2018-02-13T07:57:07.281Z,9.27
2018-02-13T07:59:34.881Z,10.07
2018-02-13T08:02:02.477Z,10.74
2018-02-13T08:04:30.109Z,11.11
2018-02-13T08:06:57.691Z,11.08
2018-02-13T08:09:25.313Z,10.91
2018-02-13T08:11:52.930Z,11.47
2018-02-13T08:14:20.525Z,12.34
2018-02-13T08:16:48.114Z,13.06
2018-02-13T08:19:15.929Z,13.80
2018-02-13T08:21:43.531Z,14.15
2018-02-13T08:24:11.132Z,13.98
2018-02-13T08:26:38.806Z,14.06
2018-02-13T08:29:06.401Z,13.98
2018-02-13T08:31:33.981Z,14.51
2018-02-13T08:34:01.606Z,14.16
2018-02-13T08:36:29.202Z,14.74
2018-02-13T08:38:56.782Z,14.72
2018-02-13T08:41:24.403Z,15.28
2018-02-13T08:43:51.990Z,15.50
2018-02-13T08:46:19.577Z,15.05
2018-02-13T08:48:47.209Z,15.18
2018-02-13T08:51:14.779Z,15.59
2018-02-13T08:53:42.351Z,15.84
2018-02-13T08:56:09.984Z,15.63
2018-02-13T08:58:37.567Z,16.07
2018-02-13T09:01:05.162Z,15.83
2018-02-13T09:03:32.784Z,15.95
2018-02-13T09:06:00.383Z,16.57
2018-02-13T09:08:27.955Z,16.58
2018-02-13T09:10:55.572Z,16.99
2018-02-13T09:13:23.149Z,16.64
2018-02-13T09:15:50.721Z,16.41
2018-02-13T09:18:18.350Z,16.14
2018-02-13T09:20:46.000Z,16.11
2018-02-13T09:23:13.586Z,16.18
2018-02-13T09:25:41.198Z,16.14
2018-02-13T09:28:08.785Z,16.42
2018-02-13T09:30:36.355Z,16.89
2018-02-13T09:33:03.959Z,17.16
2018-02-13T09:35:31.533Z,17.18
2018-02-13T09:37:59.103Z,18.02
2018-02-13T09:40:26.718Z,18.67
2018-02-13T09:42:54.290Z,19.07
2018-02-13T09:45:21.884Z,17.95
2018-02-13T09:47:49.487Z,18.03
2018-02-13T09:50:17.051Z,18.31
2018-02-13T09:52:44.651Z,18.01
2018-02-13T09:55:12.508Z,17.81
2018-02-13T09:57:40.103Z,17.72
2018-02-13T10:00:07.727Z,17.57
2018-02-13T10:02:35.341Z,17.92
2018-02-13T10:05:02.945Z,16.46
2018-02-13T10:07:30.518Z,16.06
2018-02-13T10:09:58.144Z,16.52
2018-02-13T10:12:25.713Z,16.77
2018-02-13T10:14:53.293Z,16.92
2018-02-13T10:17:20.958Z,17.30
2018-02-13T10:19:48.604Z,16.89
2018-02-13T10:22:16.243Z,15.16
2018-02-13T10:24:43.853Z,15.70
2018-02-13T10:27:12.370Z,16.32
2018-02-13T10:29:39.944Z,16.77
2018-02-13T10:32:07.647Z,17.51
2018-02-13T10:34:35.222Z,17.40
2018-02-13T10:37:02.807Z,16.68
2018-02-13T10:39:30.448Z,15.95
2018-02-13T10:41:58.038Z,15.62
2018-02-13T10:44:25.625Z,15.20
2018-02-13T10:46:53.242Z,14.56
2018-02-13T10:49:20.857Z,14.60
2018-02-13T10:51:48.441Z,14.54
2018-02-13T10:54:16.064Z,14.49
2018-02-13T10:56:43.651Z,14.63
2018-02-13T10:59:11.230Z,14.11
2018-02-13T11:01:38.863Z,13.80
2018-02-13T11:04:06.411Z,14.48
2018-02-13T11:06:33.968Z,13.62
2018-02-13T11:09:01.575Z,13.61
2018-02-13T11:11:29.157Z,12.45
2018-02-13T11:13:56.756Z,12.83
2018-02-13T11:16:24.363Z,13.58
2018-02-13T11:18:51.936Z,13.90
2018-02-13T11:21:19.497Z,13.34
2018-02-13T11:23:47.151Z,12.88
2018-02-13T11:26:14.831Z,12.72
2018-02-13T11:28:42.385Z,12.13
2018-02-13T11:31:10.007Z,12.37
2018-02-13T11:33:37.641Z,12.28
2018-02-13T11:36:05.223Z,12.44
2018-02-13T11:38:32.887Z,12.82
2018-02-13T11:41:00.476Z,11.82
2018-02-13T11:43:28.044Z,11.70
2018-02-13T11:45:55.658Z,12.95
2018-02-13T11:48:23.216Z,13.60
2018-02-13T11:50:50.780Z,14.06
2018-02-13T11:53:18.382Z,14.61
2018-02-13T11:55:45.946Z,15.31
2018-02-13T11:58:13.509Z,14.95
2018-02-13T12:00:41.121Z,13.48
2018-02-13T12:03:08.671Z,12.86
2018-02-13T12:05:36.260Z,13.88
2018-02-13T12:08:03.862Z,14.62
2018-02-13T12:10:31.437Z,15.17
2018-02-13T12:12:59.029Z,15.35
2018-02-13T12:15:26.640Z,15.73
2018-02-13T12:17:54.230Z,15.89
2018-02-13T12:20:21.787Z,16.12
2018-02-13T12:22:49.379Z,15.85
2018-02-13T12:25:28.633Z,15.59
2018-02-13T12:27:56.265Z,15.68
2018-02-13T12:30:23.849Z,15.77
2018-02-13T12:32:51.414Z,15.32
2018-02-13T12:35:19.026Z,15.57
2018-02-13T12:37:46.575Z,16.20
2018-02-13T12:40:14.162Z,15.95
2018-02-13T12:42:41.760Z,15.32
2018-02-13T12:45:09.351Z,14.21
2018-02-13T12:47:36.913Z,13.31
2018-02-13T12:50:05.430Z,13.23
2018-02-13T12:52:32.993Z,12.59
2018-02-13T12:55:00.559Z,12.10
2018-02-13T12:57:28.159Z,11.75
2018-02-13T12:59:55.712Z,11.25
2018-02-13T13:02:23.383Z,10.64
2018-02-13T13:04:51.052Z,9.84
2018-02-13T13:07:18.626Z,9.87
2018-02-13T13:09:46.196Z,9.64
2018-02-13T13:12:13.781Z,9.79
2018-02-13T13:14:41.340Z,9.82
2018-02-13T13:17:08.903Z,9.99
2018-02-13T13:19:36.537Z,9.58
2018-02-13T13:22:04.094Z,9.67
2018-02-13T13:24:31.661Z,9.29
2018-02-13T13:26:59.238Z,9.33
2018-02-13T13:29:26.798Z,9.51
2018-02-13T13:31:54.363Z,9.78
2018-02-13T13:34:22.024Z,9.89
2018-02-13T13:36:49.578Z,9.75
2018-02-13T13:39:17.144Z,9.54
2018-02-13T13:41:44.774Z,9.20
2018-02-13T13:44:12.335Z,8.95
2018-02-13T13:46:39.888Z,8.96
2018-02-13T13:49:07.487Z,9.11
2018-02-13T13:51:35.079Z,9.37
2018-02-13T13:54:02.661Z,9.38
2018-02-13T13:56:30.246Z,9.22
2018-02-13T13:58:57.806Z,9.44
2018-02-13T14:01:25.398Z,9.61
2018-02-13T14:03:52.997Z,9.41
2018-02-13T14:06:20.561Z,9.55
2018-02-13T14:08:49.096Z,9.36
2018-02-13T14:11:16.676Z,8.96
2018-02-13T14:13:44.305Z,8.60
2018-02-13T14:16:12.075Z,8.49
2018-02-13T14:18:39.697Z,8.11
2018-02-13T14:21:07.693Z,8.28
2018-02-13T14:23:35.246Z,8.18
2018-02-13T14:26:02.864Z,8.10
2018-02-13T14:28:30.544Z,8.12
2018-02-13T14:30:58.261Z,8.04
2018-02-13T14:33:25.854Z,8.19
2018-02-13T14:35:53.429Z,7.99
2018-02-13T14:38:21.031Z,8.04
2018-02-13T14:40:48.630Z,7.93
2018-02-13T14:43:16.187Z,7.89
2018-02-13T14:45:43.817Z,7.67
2018-02-13T14:48:11.462Z,7.59
2018-02-13T14:50:39.023Z,7.44
2018-02-13T14:53:06.640Z,7.42
2018-02-13T14:55:34.242Z,7.42
2018-02-13T14:58:01.832Z,7.39
2018-02-13T15:00:29.391Z,7.26
2018-02-13T15:02:56.978Z,7.28
2018-02-13T15:05:24.530Z,7.21
2018-02-13T15:07:52.100Z,7.17
2018-02-13T15:10:19.720Z,7.08
2018-02-13T15:12:47.314Z,7.10
2018-02-13T15:15:17.239Z,7.04
2018-02-13T15:17:47.277Z,7.01
2018-02-13T15:20:14.839Z,6.99
2018-02-13T15:22:42.394Z,6.82
2018-02-13T15:25:09.996Z,6.83
2018-02-13T15:27:37.568Z,6.85
2018-02-13T15:30:05.150Z,6.82
2018-02-13T15:32:32.811Z,6.77
2018-02-13T15:35:00.376Z,6.74
2018-02-13T15:37:27.909Z,6.68
2018-02-13T15:39:55.520Z,6.66
2018-02-13T15:42:23.117Z,6.70
2018-02-13T15:44:50.685Z,6.68
2018-02-13T15:47:18.864Z,6.77
2018-02-13T15:49:46.458Z,6.79
2018-02-13T15:52:14.011Z,6.82
2018-02-13T15:54:41.623Z,6.85
2018-02-13T15:57:09.182Z,6.93
2018-02-13T15:59:36.769Z,6.98
2018-02-13T16:02:04.376Z,7.07
2018-02-13T16:04:31.945Z,7.07
2018-02-13T16:06:59.521Z,7.09
2018-02-13T16:09:27.123Z,7.10
2018-02-13T16:11:54.670Z,7.15
2018-02-13T16:14:22.220Z,7.18
2018-02-13T16:16:49.834Z,7.17
2018-02-13T16:19:17.404Z,7.16
2018-02-13T16:21:44.964Z,7.23
2018-02-13T16:24:12.546Z,7.32
2018-02-13T16:26:40.207Z,7.30
2018-02-13T16:29:07.957Z,7.35
2018-02-13T16:31:35.609Z,7.40
2018-02-13T16:34:03.177Z,7.47
2018-02-13T16:36:30.721Z,7.45
2018-02-13T16:38:58.321Z,7.40
2018-02-13T16:41:25.908Z,7.43
2018-02-13T16:43:53.466Z,7.52
2018-02-13T16:46:21.313Z,7.47
2018-02-13T16:48:48.884Z,7.54
2018-02-13T16:51:16.439Z,7.49
2018-02-13T16:53:44.036Z,7.55
2018-02-13T16:56:11.582Z,7.52
2018-02-13T16:58:39.158Z,7.49
2018-02-13T17:01:06.785Z,7.54
2018-02-13T17:03:34.382Z,7.56
2018-02-13T17:06:01.939Z,7.56
2018-02-13T17:08:29.531Z,7.56
2018-02-13T17:10:57.111Z,7.51
2018-02-13T17:13:24.708Z,7.59
2018-02-13T17:15:52.293Z,7.63
2018-02-13T17:18:19.855Z,7.65
2018-02-13T17:20:47.422Z,7.66
2018-02-13T17:23:15.012Z,7.72
2018-02-13T17:25:42.612Z,7.72
2018-02-13T17:28:10.163Z,7.67
2018-02-13T17:30:37.775Z,7.79
2018-02-13T17:33:05.357Z,7.82
2018-02-13T17:35:32.914Z,7.84
2018-02-13T17:38:00.489Z,7.94
2018-02-13T17:40:28.058Z,7.96
2018-02-13T17:42:55.606Z,7.96
2018-02-13T17:45:23.198Z,7.93
2018-02-13T17:47:50.775Z,8.00
2018-02-13T17:50:18.339Z,8.03
2018-02-13T17:52:46.044Z,7.92
2018-02-13T17:55:13.611Z,7.98
2018-02-13T17:57:41.171Z,8.02
2018-02-13T18:00:08.772Z,7.99
2018-02-13T18:02:36.406Z,7.95
2018-02-13T18:05:03.971Z,7.99
2018-02-13T18:07:31.605Z,7.97
2018-02-13T18:09:59.185Z,7.94
2018-02-13T18:12:26.747Z,8.03
2018-02-13T18:14:54.342Z,8.02
2018-02-13T18:17:21.914Z,7.91
2018-02-13T18:19:49.481Z,8.02
2018-02-13T18:22:17.076Z,7.97
2018-02-13T18:24:44.669Z,8.03
2018-02-13T18:27:12.227Z,8.03
2018-02-13T18:29:39.832Z,8.06
2018-02-13T18:32:07.377Z,8.07
2018-02-13T18:34:34.924Z,8.14
2018-02-13T18:37:02.757Z,8.16
2018-02-13T18:39:30.331Z,8.10
2018-02-13T18:41:57.913Z,8.06
2018-02-13T18:44:25.513Z,8.07
2018-02-13T18:46:53.082Z,8.18
2018-02-13T18:49:20.674Z,8.20
2018-02-13T18:51:49.284Z,8.18
2018-02-13T18:54:17.826Z,8.19
2018-02-13T18:56:45.900Z,8.25
2018-02-13T18:59:13.502Z,8.15
2018-02-13T19:01:41.070Z,8.29
2018-02-13T19:04:08.654Z,8.20
2018-02-13T19:06:36.266Z,8.21
2018-02-13T19:09:06.303Z,8.20
2018-02-13T19:11:37.122Z,8.19
2018-02-13T19:14:08.181Z,8.28
2018-02-13T19:16:38.843Z,8.29
2018-02-13T19:19:09.964Z,8.29
2018-02-13T19:21:37.745Z,8.25
2018-02-13T19:24:05.430Z,8.28
2018-02-13T19:26:33.045Z,8.34
2018-02-13T19:29:00.625Z,8.33
2018-02-13T19:31:28.203Z,8.28
2018-02-13T19:33:56.973Z,8.39
2018-02-13T19:36:25.526Z,8.43
2018-02-13T19:38:54.269Z,8.32
2018-02-13T19:41:23.682Z,8.52
2018-02-13T19:43:52.463Z,8.49
2018-02-13T19:46:21.448Z,8.38
2018-02-13T19:48:49.952Z,8.42
2018-02-13T19:51:19.167Z,8.42
2018-02-13T19:53:48.144Z,8.41
2018-02-13T19:56:17.036Z,8.36
2018-02-13T19:58:45.453Z,8.41
2018-02-13T20:01:14.430Z,8.48
2018-02-13T20:03:42.899Z,8.46
2018-02-13T20:06:11.112Z,8.43
2018-02-13T20:08:39.441Z,8.39
2018-02-13T20:11:08.282Z,8.40
2018-02-13T20:13:37.428Z,8.37
2018-02-13T20:16:06.366Z,8.35
2018-02-13T20:18:35.422Z,8.28
2018-02-13T20:21:04.196Z,8.31
2018-02-13T20:23:32.843Z,8.30
2018-02-13T20:26:01.862Z,8.29
2018-02-13T20:28:30.192Z,8.29
2018-02-13T20:30:58.041Z,8.38
2018-02-13T20:33:25.981Z,8.30
2018-02-13T20:35:53.645Z,8.27
2018-02-13T20:38:21.637Z,8.28
2018-02-13T20:40:50.075Z,8.29
2018-02-13T20:43:18.996Z,8.29
2018-02-13T20:45:46.843Z,8.23
2018-02-13T20:48:14.919Z,8.32
2018-02-13T20:50:43.312Z,8.32
2018-02-13T20:53:11.569Z,8.26
2018-02-13T20:55:39.153Z,8.32
2018-02-13T20:58:06.955Z,8.31
2018-02-13T21:00:34.917Z,8.37
2018-02-13T21:03:02.530Z,8.33
2018-02-13T21:05:30.214Z,8.32
2018-02-13T21:07:57.760Z,8.36
2018-02-13T21:10:25.353Z,8.40
2018-02-13T21:12:52.969Z,8.35
2018-02-13T21:15:20.535Z,8.43
2018-02-13T21:17:48.176Z,8.50
2018-02-13T21:20:15.747Z,8.53
2018-02-13T21:22:43.320Z,8.59
2018-02-13T21:25:11.157Z,8.62
2018-02-13T21:27:38.707Z,8.58
2018-02-13T21:30:06.589Z,8.58
2018-02-13T21:32:34.192Z,8.59
2018-02-13T21:35:01.838Z,8.63
2018-02-13T21:37:29.410Z,8.67
2018-02-13T21:39:57.027Z,8.68
2018-02-13T21:42:24.576Z,8.66
2018-02-13T21:44:52.177Z,8.75
2018-02-13T21:47:19.766Z,8.67
2018-02-13T21:49:47.404Z,8.70
2018-02-13T21:52:14.940Z,8.66
2018-02-13T21:54:42.526Z,8.62
2018-02-13T21:57:10.095Z,8.72
2018-02-13T21:59:37.659Z,8.66
2018-02-13T22:02:05.226Z,8.64
2018-02-13T22:04:32.763Z,8.61
2018-02-13T22:07:00.316Z,8.59
2018-02-13T22:09:27.913Z,8.55
2018-02-13T22:11:55.460Z,8.50
2018-02-13T22:14:23.085Z,8.53
2018-02-13T22:16:50.669Z,8.54
2018-02-13T22:19:18.245Z,8.54
2018-02-13T22:21:45.875Z,8.51
2018-02-13T22:24:13.467Z,8.50
2018-02-13T22:26:41.037Z,8.54
2018-02-13T22:29:08.571Z,8.58
2018-02-13T22:31:36.148Z,8.64
2018-02-13T22:34:03.716Z,8.57
2018-02-13T22:36:31.266Z,8.60
2018-02-13T22:38:58.846Z,8.60
2018-02-13T22:41:26.445Z,8.64
2018-02-13T22:43:54.059Z,8.67
2018-02-13T22:46:21.651Z,8.66
2018-02-13T22:48:49.223Z,8.61
2018-02-13T22:51:16.831Z,8.61
2018-02-13T22:53:44.457Z,8.70
2018-02-13T22:56:12.010Z,8.70
2018-02-13T22:58:39.733Z,8.70
2018-02-13T23:01:07.364Z,8.69
2018-02-13T23:03:34.919Z,8.69
2018-02-13T23:06:02.560Z,8.69
2018-02-13T23:08:30.177Z,8.71
2018-02-13T23:10:57.757Z,8.71
2018-02-13T23:13:25.324Z,8.76
2018-02-13T23:15:52.934Z,8.77
2018-02-13T23:18:20.530Z,8.77
2018-02-13T23:20:48.108Z,8.75
2018-02-13T23:23:15.717Z,8.73
2018-02-13T23:25:43.302Z,8.71
2018-02-13T23:28:10.868Z,8.78
2018-02-13T23:30:38.458Z,8.81
2018-02-13T23:33:06.016Z,8.82
2018-02-13T23:35:33.573Z,8.78
2018-02-13T23:38:01.165Z,8.79
2018-02-13T23:40:29.736Z,8.79
2018-02-13T23:42:58.280Z,8.82
2018-02-13T23:45:28.248Z,8.75
2018-02-13T23:47:58.949Z,8.77
2018-02-13T23:50:28.316Z,8.72
2018-02-13T23:52:58.507Z,8.72
2018-02-13T23:55:28.505Z,8.71
2018-02-13T23:57:56.203Z,8.71
